createdAt,value
2018-12-10T00:00:23.345Z,85.00
2018-12-10T00:00:56.142Z,83.80
2018-12-10T00:01:28.922Z,84.00
2018-12-10T00:02:01.567Z,83.50
2018-12-10T00:02:34.210Z,84.30
2018-12-10T00:03:12.536Z,84.10
2018-12-10T00:03:45.169Z,84.00
2018-12-10T00:04:17.824Z,83.20
2018-12-10T00:04:50.481Z,83.10
2018-12-10T00:05:23.169Z,82.90
2018-12-10T00:05:55.815Z,83.30
2018-12-10T00:06:28.497Z,82.80
2018-12-10T00:07:01.185Z,82.70
2018-12-10T00:07:33.848Z,83.00
2018-12-10T00:08:06.477Z,82.80
2018-12-10T00:08:39.106Z,82.60
2018-12-10T00:09:11.736Z,83.10
2018-12-10T00:09:44.408Z,83.60
2018-12-10T00:10:17.063Z,84.00
2018-12-10T00:10:49.752Z,83.80
2018-12-10T00:11:22.403Z,84.80
2018-12-10T00:11:55.085Z,84.80
2018-12-10T00:12:27.760Z,83.60
2018-12-10T00:13:00.381Z,82.70
2018-12-10T00:13:33.030Z,83.20
2018-12-10T00:14:05.664Z,82.90
2018-12-10T00:14:38.316Z,82.20
2018-12-10T00:15:10.945Z,81.90
2018-12-10T00:15:43.578Z,81.10
2018-12-10T00:16:16.213Z,81.20
2018-12-10T00:16:48.865Z,80.40
2018-12-10T00:17:21.548Z,81.10
2018-12-10T00:17:54.217Z,81.80
2018-12-10T00:18:26.867Z,80.50
2018-12-10T00:18:59.496Z,79.90
2018-12-10T00:19:32.117Z,80.40
2018-12-10T00:20:04.916Z,80.00
2018-12-10T00:20:37.562Z,79.50
2018-12-10T00:21:10.227Z,79.40
2018-12-10T00:21:42.866Z,79.60
2018-12-10T00:22:15.491Z,80.30
2018-12-10T00:22:48.174Z,81.40
2018-12-10T00:23:20.811Z,80.60
2018-12-10T00:23:53.517Z,81.00
2018-12-10T00:24:26.204Z,81.70
2018-12-10T00:24:58.877Z,81.60
2018-12-10T00:25:31.518Z,81.70
2018-12-10T00:26:04.296Z,82.30
2018-12-10T00:26:36.917Z,81.80
2018-12-10T00:27:11.581Z,81.00
2018-12-10T00:27:44.222Z,81.50
2018-12-10T00:28:16.873Z,81.20
2018-12-10T00:28:49.487Z,81.30
2018-12-10T00:29:22.117Z,81.20
2018-12-10T00:29:54.746Z,81.30
2018-12-10T00:30:27.401Z,81.10
2018-12-10T00:31:00.050Z,81.90
2018-12-10T00:31:32.698Z,80.30
2018-12-10T00:32:05.384Z,79.40
2018-12-10T00:32:38.077Z,80.00
2018-12-10T00:33:10.702Z,79.70
2018-12-10T00:33:43.478Z,80.10
2018-12-10T00:34:16.140Z,80.80
2018-12-10T00:34:48.761Z,80.30
2018-12-10T00:35:21.502Z,80.20
2018-12-10T00:35:54.252Z,80.20
2018-12-10T00:36:28.085Z,80.20
2018-12-10T00:37:01.117Z,79.60
2018-12-10T00:37:33.822Z,79.20
2018-12-10T00:38:06.479Z,79.60
2018-12-10T00:38:39.120Z,79.60
2018-12-10T00:39:11.799Z,79.70
2018-12-10T00:39:44.411Z,78.10
2018-12-10T00:40:17.118Z,78.00
2018-12-10T00:40:49.742Z,78.50
2018-12-10T00:41:22.364Z,79.30
2018-12-10T00:41:54.998Z,78.50
2018-12-10T00:42:27.644Z,78.90
2018-12-10T00:43:00.268Z,78.80
2018-12-10T00:43:32.919Z,78.60
2018-12-10T00:44:05.575Z,78.60
2018-12-10T00:44:38.247Z,79.30
2018-12-10T00:45:10.914Z,79.00
2018-12-10T00:45:43.541Z,78.60
2018-12-10T00:46:16.228Z,78.70
2018-12-10T00:46:48.885Z,79.40
2018-12-10T00:47:21.570Z,79.70
2018-12-10T00:47:54.162Z,79.90
2018-12-10T00:48:26.804Z,80.20
2018-12-10T00:48:59.462Z,79.30
2018-12-10T00:49:32.084Z,78.80
2018-12-10T00:50:05.282Z,78.70
2018-12-10T00:50:37.954Z,78.80
2018-12-10T00:51:10.597Z,79.50
2018-12-10T00:51:43.284Z,79.00
2018-12-10T00:52:15.929Z,79.00
2018-12-10T00:52:48.598Z,79.50
2018-12-10T00:53:21.242Z,79.30
2018-12-10T00:53:53.926Z,79.00
2018-12-10T00:54:26.594Z,79.40
2018-12-10T00:54:59.256Z,79.40
2018-12-10T00:55:31.945Z,79.70
2018-12-10T00:56:04.607Z,79.50
2018-12-10T00:56:37.281Z,79.70
2018-12-10T00:57:09.966Z,80.10
2018-12-10T00:57:42.637Z,80.80
2018-12-10T00:58:15.303Z,81.40
2018-12-10T00:58:47.946Z,81.90
2018-12-10T00:59:20.647Z,81.70
2018-12-10T00:59:53.282Z,81.50
2018-12-10T01:00:26.064Z,81.70
2018-12-10T01:00:58.737Z,82.40
2018-12-10T01:01:31.414Z,83.20
2018-12-10T01:02:04.075Z,82.50
2018-12-10T01:02:36.795Z,82.60
2018-12-10T01:03:09.414Z,82.80
2018-12-10T01:03:42.141Z,83.00
2018-12-10T01:04:14.820Z,82.80
2018-12-10T01:04:47.455Z,82.20
2018-12-10T01:05:20.143Z,81.50
2018-12-10T01:05:52.809Z,82.20
2018-12-10T01:06:25.529Z,81.90
2018-12-10T01:06:58.922Z,81.50
2018-12-10T01:07:31.786Z,82.60
2018-12-10T01:08:04.552Z,82.90
2018-12-10T01:08:37.209Z,83.60
2018-12-10T01:09:09.856Z,82.60
2018-12-10T01:09:42.509Z,82.90
2018-12-10T01:10:15.156Z,83.10
2018-12-10T01:10:47.841Z,83.90
2018-12-10T01:11:20.520Z,84.50
2018-12-10T01:11:53.198Z,84.80
2018-12-10T01:12:25.879Z,84.70
2018-12-10T01:12:58.543Z,84.60
2018-12-10T01:13:31.335Z,84.20
2018-12-10T01:14:04.362Z,84.30
2018-12-10T01:14:36.989Z,84.40
2018-12-10T01:15:09.790Z,83.80
2018-12-10T01:15:42.490Z,83.90
2018-12-10T01:16:15.257Z,84.20
2018-12-10T01:16:47.904Z,84.00
2018-12-10T01:17:20.614Z,84.40
2018-12-10T01:17:53.268Z,84.40
2018-12-10T01:18:25.914Z,84.60
2018-12-10T01:18:58.595Z,84.40
2018-12-10T01:19:31.245Z,85.00
2018-12-10T01:20:04.534Z,85.30
2018-12-10T01:20:37.161Z,85.40
2018-12-10T01:21:09.818Z,83.80
2018-12-10T01:21:42.436Z,83.80
2018-12-10T01:22:15.078Z,83.50
2018-12-10T01:22:47.744Z,83.40
2018-12-10T01:23:20.394Z,83.40
2018-12-10T01:23:53.101Z,83.50
2018-12-10T01:24:25.748Z,83.00
2018-12-10T01:24:58.504Z,83.40
2018-12-10T01:25:31.168Z,83.20
2018-12-10T01:26:03.831Z,84.00
2018-12-10T01:26:36.491Z,83.10
2018-12-10T01:27:09.157Z,83.00
2018-12-10T01:27:41.798Z,83.50
2018-12-10T01:28:14.467Z,83.30
2018-12-10T01:28:47.146Z,83.30
2018-12-10T01:29:19.787Z,83.10
2018-12-10T01:29:52.398Z,83.10
2018-12-10T01:30:25.043Z,83.40
2018-12-10T01:30:57.687Z,83.40
2018-12-10T01:31:30.335Z,83.50
2018-12-10T01:32:03.080Z,83.60
2018-12-10T01:32:35.693Z,83.70
2018-12-10T01:33:08.378Z,83.90
2018-12-10T01:33:41.015Z,82.90
2018-12-10T01:34:13.687Z,83.20
2018-12-10T01:34:46.335Z,82.40
2018-12-10T01:35:19.017Z,82.30
2018-12-10T01:35:51.634Z,82.10
2018-12-10T01:36:24.327Z,82.10
2018-12-10T01:36:56.972Z,82.10
2018-12-10T01:37:29.628Z,82.10
2018-12-10T01:38:02.269Z,81.80
2018-12-10T01:38:34.932Z,81.60
2018-12-10T01:39:07.600Z,81.30
2018-12-10T01:39:40.278Z,81.50
2018-12-10T01:40:12.968Z,81.70
2018-12-10T01:40:45.627Z,81.90
2018-12-10T01:41:18.249Z,81.90
2018-12-10T01:41:50.907Z,82.10
2018-12-10T01:42:23.536Z,82.50
2018-12-10T01:42:56.166Z,82.00
2018-12-10T01:43:28.830Z,81.70
2018-12-10T01:44:01.483Z,81.60
2018-12-10T01:44:34.189Z,82.00
2018-12-10T01:45:07.545Z,82.10
2018-12-10T01:45:40.203Z,82.30
2018-12-10T01:46:12.841Z,82.20
2018-12-10T01:46:45.526Z,82.10
2018-12-10T01:47:18.160Z,81.60
2018-12-10T01:47:50.833Z,81.20
2018-12-10T01:48:23.482Z,81.10
2018-12-10T01:48:56.110Z,80.90
2018-12-10T01:49:28.725Z,81.00
2018-12-10T01:50:01.435Z,81.70
2018-12-10T01:50:34.086Z,81.80
2018-12-10T01:51:07.586Z,81.90
2018-12-10T01:51:40.290Z,82.00
2018-12-10T01:52:12.961Z,82.00
2018-12-10T01:52:45.614Z,82.30
2018-12-10T01:53:18.276Z,82.40
2018-12-10T01:53:50.943Z,82.50
2018-12-10T01:54:23.614Z,82.50
2018-12-10T01:54:56.266Z,82.40
2018-12-10T01:55:28.948Z,82.60
2018-12-10T01:56:01.638Z,83.00
2018-12-10T01:56:34.305Z,83.20
2018-12-10T01:57:06.993Z,83.90
2018-12-10T01:57:39.634Z,83.30
2018-12-10T01:58:12.269Z,83.30
2018-12-10T01:58:44.918Z,83.80
2018-12-10T01:59:17.570Z,83.70
2018-12-10T01:59:50.217Z,83.90
2018-12-10T02:00:22.851Z,83.70
2018-12-10T02:00:55.507Z,84.10
2018-12-10T02:01:28.149Z,84.80
2018-12-10T02:02:00.800Z,85.30
2018-12-10T02:02:33.442Z,86.00
2018-12-10T02:03:06.115Z,86.90
2018-12-10T02:03:38.793Z,88.10
2018-12-10T02:04:11.474Z,88.80
2018-12-10T02:04:44.124Z,89.80
2018-12-10T02:05:16.802Z,90.50
2018-12-10T02:05:49.451Z,91.10
2018-12-10T02:06:22.191Z,91.80
2018-12-10T02:06:54.848Z,92.20
2018-12-10T02:07:27.505Z,92.60
2018-12-10T02:08:00.180Z,93.20
2018-12-10T02:08:32.823Z,93.60
2018-12-10T02:09:06.212Z,94.00
2018-12-10T02:09:38.842Z,94.50
2018-12-10T02:10:11.488Z,94.90
2018-12-10T02:10:44.113Z,95.30
2018-12-10T02:11:16.771Z,95.60
2018-12-10T02:11:49.424Z,96.10
2018-12-10T02:12:22.073Z,96.60
2018-12-10T02:12:54.708Z,97.00
2018-12-10T02:13:27.350Z,97.30
2018-12-10T02:14:00.018Z,97.40
2018-12-10T02:14:32.656Z,97.70
2018-12-10T02:15:05.701Z,97.90
2018-12-10T02:15:38.350Z,98.00
2018-12-10T02:16:11.000Z,98.10
2018-12-10T02:16:43.786Z,98.20
2018-12-10T02:17:16.537Z,98.30
2018-12-10T02:17:49.227Z,98.50
2018-12-10T02:18:21.878Z,98.70
2018-12-10T02:18:54.510Z,98.60
2018-12-10T02:19:27.176Z,98.60
2018-12-10T02:19:59.818Z,98.70
2018-12-10T02:20:32.480Z,99.00
2018-12-10T02:21:05.179Z,98.90
2018-12-10T02:21:37.832Z,99.00
2018-12-10T02:22:10.497Z,99.10
2018-12-10T02:22:43.167Z,99.10
2018-12-10T02:23:15.838Z,99.10
2018-12-10T02:23:48.523Z,99.20
2018-12-10T02:24:21.225Z,99.40
2018-12-10T02:24:53.904Z,99.50
2018-12-10T02:25:26.567Z,99.50
2018-12-10T02:25:59.195Z,99.40
2018-12-10T02:26:31.819Z,99.20
2018-12-10T02:27:04.482Z,99.30
2018-12-10T02:27:37.158Z,99.00
2018-12-10T02:28:09.838Z,99.10
2018-12-10T02:28:48.001Z,99.00
2018-12-10T02:29:20.672Z,99.00
2018-12-10T02:29:53.350Z,99.00
2018-12-10T02:30:26.150Z,99.10
2018-12-10T02:30:58.817Z,98.90
2018-12-10T02:31:31.473Z,98.70
2018-12-10T02:32:04.146Z,98.70
2018-12-10T02:32:36.791Z,98.80
2018-12-10T02:33:09.483Z,98.90
2018-12-10T02:33:42.288Z,98.80
2018-12-10T02:34:14.905Z,98.00
2018-12-10T02:34:47.578Z,98.00
2018-12-10T02:35:20.216Z,98.10
2018-12-10T02:35:52.854Z,97.90
2018-12-10T02:36:25.497Z,97.80
2018-12-10T02:36:58.142Z,97.70
2018-12-10T02:37:30.779Z,97.50
2018-12-10T02:38:03.434Z,97.80
2018-12-10T02:38:36.088Z,97.80
2018-12-10T02:39:08.797Z,97.70
2018-12-10T02:39:41.438Z,97.70
2018-12-10T02:40:14.090Z,97.70
2018-12-10T02:40:46.851Z,97.80
2018-12-10T02:41:19.483Z,98.00
2018-12-10T02:41:52.145Z,98.10
2018-12-10T02:42:24.834Z,98.20
2018-12-10T02:42:57.468Z,98.20
2018-12-10T02:43:30.089Z,98.20
2018-12-10T02:44:02.862Z,98.20
2018-12-10T02:44:35.520Z,98.20
2018-12-10T02:45:08.410Z,97.70
2018-12-10T02:45:41.127Z,97.30
2018-12-10T02:46:13.774Z,97.40
2018-12-10T02:46:46.400Z,97.60
2018-12-10T02:47:19.049Z,97.90
2018-12-10T02:47:51.694Z,98.00
2018-12-10T02:48:24.318Z,98.10
2018-12-10T02:48:56.972Z,98.00
2018-12-10T02:49:29.613Z,98.10
2018-12-10T02:50:02.502Z,98.30
2018-12-10T02:50:35.151Z,98.20
2018-12-10T02:51:07.805Z,97.90
2018-12-10T02:51:40.439Z,97.90
2018-12-10T02:52:13.086Z,97.90
2018-12-10T02:52:45.698Z,97.90
2018-12-10T02:53:18.327Z,98.00
2018-12-10T02:53:50.924Z,98.00
2018-12-10T02:54:23.541Z,97.80
2018-12-10T02:54:56.154Z,97.80
2018-12-10T02:55:28.812Z,97.60
2018-12-10T02:56:01.527Z,97.60
2018-12-10T02:56:34.145Z,97.80
2018-12-10T02:57:06.826Z,97.70
2018-12-10T02:57:39.470Z,97.80
2018-12-10T02:58:12.090Z,98.00
2018-12-10T02:58:44.732Z,97.70
2018-12-10T02:59:17.348Z,97.70
2018-12-10T02:59:49.938Z,97.70
2018-12-10T03:00:22.566Z,97.80
2018-12-10T03:00:55.185Z,97.40
2018-12-10T03:01:27.802Z,97.30
2018-12-10T03:02:00.408Z,97.00
2018-12-10T03:02:33.143Z,97.00
2018-12-10T03:03:05.832Z,97.20
2018-12-10T03:03:38.401Z,97.30
2018-12-10T03:04:10.968Z,97.20
2018-12-10T03:04:43.549Z,97.30
2018-12-10T03:05:16.153Z,97.30
2018-12-10T03:05:48.733Z,97.30
2018-12-10T03:06:21.392Z,96.30
2018-12-10T03:06:54.036Z,96.40
2018-12-10T03:07:26.628Z,96.50
2018-12-10T03:07:59.233Z,96.50
2018-12-10T03:08:31.874Z,96.40
2018-12-10T03:09:06.328Z,96.20
2018-12-10T03:09:38.929Z,96.10
2018-12-10T03:10:11.534Z,95.10
2018-12-10T03:10:44.145Z,95.10
2018-12-10T03:11:16.743Z,95.10
2018-12-10T03:11:49.361Z,95.10
2018-12-10T03:12:21.962Z,95.20
2018-12-10T03:12:54.570Z,94.90
2018-12-10T03:13:27.167Z,95.30
2018-12-10T03:13:59.801Z,95.50
2018-12-10T03:14:32.447Z,95.40
2018-12-10T03:15:05.674Z,95.50
2018-12-10T03:15:38.291Z,95.70
2018-12-10T03:16:10.890Z,95.70
2018-12-10T03:16:43.510Z,95.90
2018-12-10T03:17:16.143Z,96.20
2018-12-10T03:17:48.735Z,96.00
2018-12-10T03:18:21.350Z,95.70
2018-12-10T03:18:53.964Z,95.80
2018-12-10T03:19:26.574Z,96.00
2018-12-10T03:19:59.286Z,95.90
2018-12-10T03:20:31.885Z,95.60
2018-12-10T03:21:04.498Z,95.40
2018-12-10T03:21:37.116Z,95.30
2018-12-10T03:22:09.707Z,95.40
2018-12-10T03:22:42.315Z,95.20
2018-12-10T03:23:14.920Z,94.90
2018-12-10T03:23:47.531Z,95.00
2018-12-10T03:24:20.156Z,95.10
2018-12-10T03:24:52.771Z,95.10
2018-12-10T03:25:25.557Z,95.00
2018-12-10T03:25:58.156Z,95.00
2018-12-10T03:26:30.759Z,95.10
2018-12-10T03:27:03.519Z,94.40
2018-12-10T03:27:36.122Z,94.20
2018-12-10T03:28:08.747Z,94.50
2018-12-10T03:28:41.337Z,94.40
2018-12-10T03:29:13.945Z,94.30
2018-12-10T03:29:46.514Z,94.50
2018-12-10T03:30:19.250Z,94.60
2018-12-10T03:30:51.923Z,94.70
2018-12-10T03:31:24.679Z,94.90
2018-12-10T03:31:57.280Z,94.40
2018-12-10T03:32:29.887Z,94.30
2018-12-10T03:33:02.548Z,94.10
2018-12-10T03:33:35.254Z,94.20
2018-12-10T03:34:07.867Z,94.60
2018-12-10T03:34:40.531Z,94.70
2018-12-10T03:35:13.106Z,94.80
2018-12-10T03:35:45.709Z,94.80
2018-12-10T03:36:18.530Z,94.80
2018-12-10T03:36:51.176Z,94.60
2018-12-10T03:37:23.749Z,94.90
2018-12-10T03:37:56.314Z,94.90
2018-12-10T03:38:28.943Z,95.00
2018-12-10T03:39:01.553Z,94.70
2018-12-10T03:39:34.152Z,94.50
2018-12-10T03:40:06.886Z,94.60
2018-12-10T03:40:39.491Z,94.60
2018-12-10T03:41:12.086Z,94.90
2018-12-10T03:41:44.696Z,94.60
2018-12-10T03:42:17.290Z,94.40
2018-12-10T03:42:49.887Z,94.60
2018-12-10T03:43:22.463Z,94.90
2018-12-10T03:43:55.053Z,94.70
2018-12-10T03:44:27.697Z,94.60
2018-12-10T03:45:00.415Z,94.70
2018-12-10T03:45:33.062Z,95.20
2018-12-10T03:46:05.651Z,94.50
2018-12-10T03:46:38.262Z,94.40
2018-12-10T03:47:10.871Z,94.30
2018-12-10T03:47:43.458Z,94.60
2018-12-10T03:48:16.191Z,94.30
2018-12-10T03:48:48.760Z,94.40
2018-12-10T03:49:21.367Z,94.20
2018-12-10T03:49:54.002Z,94.30
2018-12-10T03:50:26.588Z,94.40
2018-12-10T03:50:59.189Z,94.70
2018-12-10T03:51:31.797Z,94.20
2018-12-10T03:52:04.423Z,94.10
2018-12-10T03:52:37.010Z,94.30
2018-12-10T03:53:09.605Z,94.10
2018-12-10T03:53:42.224Z,94.20
2018-12-10T03:54:14.793Z,93.70
2018-12-10T03:54:47.378Z,93.80
2018-12-10T03:55:20.003Z,94.00
2018-12-10T03:55:52.588Z,94.00
2018-12-10T03:56:25.180Z,93.80
2018-12-10T03:56:57.796Z,93.80
2018-12-10T03:57:30.405Z,93.70
2018-12-10T03:58:02.996Z,94.00
2018-12-10T03:58:35.611Z,93.40
2018-12-10T03:59:08.206Z,93.50
2018-12-10T03:59:40.792Z,93.40
2018-12-10T04:00:13.404Z,93.60
2018-12-10T04:00:46.232Z,93.50
2018-12-10T04:01:18.823Z,93.50
2018-12-10T04:01:51.422Z,93.20
2018-12-10T04:02:24.038Z,93.30
2018-12-10T04:02:56.621Z,92.90
2018-12-10T04:03:29.240Z,93.30
2018-12-10T04:04:01.841Z,92.60
2018-12-10T04:04:34.440Z,92.10
2018-12-10T04:05:07.213Z,92.00
2018-12-10T04:05:39.794Z,92.20
2018-12-10T04:06:12.447Z,92.30
2018-12-10T04:06:45.060Z,92.50
2018-12-10T04:07:17.806Z,92.10
2018-12-10T04:07:50.393Z,92.30
2018-12-10T04:08:23.009Z,92.40
2018-12-10T04:08:55.623Z,92.30
2018-12-10T04:09:28.247Z,92.60
2018-12-10T04:10:00.822Z,92.50
2018-12-10T04:10:33.418Z,92.00
2018-12-10T04:11:06.037Z,92.00
2018-12-10T04:11:38.668Z,91.80
2018-12-10T04:12:11.274Z,92.00
2018-12-10T04:12:43.908Z,92.30
2018-12-10T04:13:16.492Z,92.40
2018-12-10T04:13:49.105Z,92.10
2018-12-10T04:14:21.708Z,92.10
2018-12-10T04:14:54.295Z,92.10
2018-12-10T04:15:26.899Z,91.80
2018-12-10T04:15:59.487Z,91.30
2018-12-10T04:16:32.131Z,91.50
2018-12-10T04:17:05.849Z,91.40
2018-12-10T04:17:38.434Z,91.70
2018-12-10T04:18:11.035Z,91.70
2018-12-10T04:18:47.866Z,91.60
2018-12-10T04:19:20.465Z,91.40
2018-12-10T04:19:53.041Z,91.20
2018-12-10T04:20:25.620Z,90.80
2018-12-10T04:20:58.221Z,91.10
2018-12-10T04:21:30.986Z,91.40
2018-12-10T04:22:03.675Z,91.10
2018-12-10T04:22:36.362Z,90.60
2018-12-10T04:23:08.934Z,90.70
2018-12-10T04:23:41.558Z,90.80
2018-12-10T04:24:14.188Z,90.90
2018-12-10T04:24:46.836Z,90.70
2018-12-10T04:25:19.461Z,91.10
2018-12-10T04:25:52.209Z,90.40
2018-12-10T04:26:24.792Z,90.20
2018-12-10T04:26:57.380Z,89.70
2018-12-10T04:27:30.043Z,89.60
2018-12-10T04:28:02.662Z,89.60
2018-12-10T04:28:36.207Z,89.70
2018-12-10T04:29:08.817Z,90.10
2018-12-10T04:29:41.446Z,90.20
2018-12-10T04:30:14.041Z,90.10
2018-12-10T04:30:46.654Z,90.10
2018-12-10T04:31:19.232Z,90.10
2018-12-10T04:31:51.827Z,90.00
2018-12-10T04:32:24.426Z,89.90
2018-12-10T04:32:57.020Z,89.60
2018-12-10T04:33:29.633Z,89.70
2018-12-10T04:34:02.256Z,90.00
2018-12-10T04:34:34.867Z,90.10
2018-12-10T04:35:07.514Z,89.70
2018-12-10T04:35:40.126Z,90.00
2018-12-10T04:36:12.803Z,89.60
2018-12-10T04:36:45.413Z,89.70
2018-12-10T04:37:18.005Z,89.90
2018-12-10T04:37:50.606Z,89.80
2018-12-10T04:38:23.193Z,89.70
2018-12-10T04:38:55.824Z,90.10
2018-12-10T04:39:28.415Z,90.20
2018-12-10T04:40:01.022Z,90.40
2018-12-10T04:40:33.608Z,90.20
2018-12-10T04:41:06.212Z,90.60
2018-12-10T04:41:38.791Z,90.60
2018-12-10T04:42:11.374Z,90.60
2018-12-10T04:42:44.000Z,90.60
2018-12-10T04:43:16.600Z,90.80
2018-12-10T04:43:49.221Z,91.00
2018-12-10T04:44:21.848Z,91.10
2018-12-10T04:44:54.438Z,90.50
2018-12-10T04:45:27.073Z,90.80
2018-12-10T04:45:59.684Z,90.80
2018-12-10T04:46:32.314Z,90.80
2018-12-10T04:47:06.097Z,90.60
2018-12-10T04:47:38.693Z,90.70
2018-12-10T04:48:11.325Z,90.80
2018-12-10T04:48:43.950Z,91.20
2018-12-10T04:49:16.540Z,91.20
2018-12-10T04:49:49.165Z,91.60
2018-12-10T04:50:21.748Z,91.50
2018-12-10T04:50:54.338Z,91.50
2018-12-10T04:51:26.934Z,91.60
2018-12-10T04:51:59.530Z,92.00
2018-12-10T04:52:32.137Z,92.00
2018-12-10T04:53:04.729Z,92.20
2018-12-10T04:53:37.313Z,92.00
2018-12-10T04:54:09.896Z,92.10
2018-12-10T04:54:42.486Z,92.10
2018-12-10T04:55:15.128Z,92.20
2018-12-10T04:55:47.717Z,92.40
2018-12-10T04:56:20.294Z,92.30
2018-12-10T04:56:52.901Z,92.30
2018-12-10T04:57:25.486Z,92.00
2018-12-10T04:57:58.070Z,92.00
2018-12-10T04:58:30.687Z,92.10
2018-12-10T04:59:03.412Z,91.80
2018-12-10T04:59:36.004Z,91.50
2018-12-10T05:00:08.870Z,91.80
2018-12-10T05:00:41.474Z,91.70
2018-12-10T05:01:14.069Z,91.60
2018-12-10T05:01:46.661Z,91.70
2018-12-10T05:02:19.307Z,91.10
2018-12-10T05:02:51.898Z,91.20
2018-12-10T05:03:24.485Z,91.00
2018-12-10T05:03:57.085Z,90.80
2018-12-10T05:04:29.680Z,91.10
2018-12-10T05:05:02.269Z,91.20
2018-12-10T05:05:34.868Z,91.30
2018-12-10T05:06:07.497Z,91.30
2018-12-10T05:06:40.060Z,90.80
2018-12-10T05:07:12.669Z,90.80
2018-12-10T05:07:45.258Z,90.80
2018-12-10T05:08:17.880Z,90.60
2018-12-10T05:08:50.511Z,90.20
2018-12-10T05:09:23.114Z,90.30
2018-12-10T05:09:55.708Z,90.60
2018-12-10T05:10:28.339Z,90.40
2018-12-10T05:11:00.936Z,89.70
2018-12-10T05:11:33.543Z,89.70
2018-12-10T05:12:06.252Z,90.10
2018-12-10T05:12:38.871Z,90.30
2018-12-10T05:13:11.472Z,90.80
2018-12-10T05:13:44.148Z,90.60
2018-12-10T05:14:16.741Z,90.30
2018-12-10T05:14:49.380Z,90.20
2018-12-10T05:15:22.004Z,90.00
2018-12-10T05:15:54.585Z,90.40
2018-12-10T05:16:27.195Z,90.30
2018-12-10T05:16:59.908Z,90.30
2018-12-10T05:17:32.544Z,90.10
2018-12-10T05:18:05.198Z,90.20
2018-12-10T05:18:37.796Z,90.00
2018-12-10T05:19:10.397Z,90.10
2018-12-10T05:19:42.988Z,89.60
2018-12-10T05:20:15.593Z,90.00
2018-12-10T05:20:48.186Z,89.70
2018-12-10T05:21:20.771Z,90.00
2018-12-10T05:21:53.336Z,89.00
2018-12-10T05:22:25.978Z,89.30
2018-12-10T05:22:58.622Z,88.70
2018-12-10T05:23:31.231Z,87.90
2018-12-10T05:24:03.952Z,88.70
2018-12-10T05:24:36.532Z,89.10
2018-12-10T05:25:09.188Z,88.30
2018-12-10T05:25:41.782Z,87.90
2018-12-10T05:26:14.377Z,88.70
2018-12-10T05:26:46.986Z,88.30
2018-12-10T05:27:19.581Z,87.90
2018-12-10T05:27:52.211Z,88.80
2018-12-10T05:28:24.836Z,88.60
2018-12-10T05:28:57.447Z,89.00
2018-12-10T05:29:30.053Z,88.70
2018-12-10T05:30:02.830Z,88.70
2018-12-10T05:30:35.422Z,88.50
2018-12-10T05:31:08.132Z,88.70
2018-12-10T05:31:40.972Z,88.00
2018-12-10T05:32:13.582Z,87.70
2018-12-10T05:32:46.150Z,86.40
2018-12-10T05:33:18.793Z,86.50
2018-12-10T05:33:51.481Z,86.90
2018-12-10T05:34:24.070Z,86.80
2018-12-10T05:34:56.650Z,86.80
2018-12-10T05:35:29.290Z,86.90
2018-12-10T05:36:01.880Z,86.30
2018-12-10T05:36:34.460Z,85.20
2018-12-10T05:37:07.061Z,84.80
2018-12-10T05:37:39.678Z,85.50
2018-12-10T05:38:12.253Z,85.60
2018-12-10T05:38:44.873Z,86.00
2018-12-10T05:39:17.460Z,86.10
2018-12-10T05:39:50.038Z,85.20
2018-12-10T05:40:22.606Z,85.50
2018-12-10T05:40:55.226Z,86.20
2018-12-10T05:41:27.845Z,85.80
2018-12-10T05:42:00.449Z,86.10
2018-12-10T05:42:33.042Z,86.30
2018-12-10T05:43:05.646Z,86.50
2018-12-10T05:43:38.254Z,86.80
2018-12-10T05:44:10.865Z,86.00
2018-12-10T05:44:43.610Z,86.30
2018-12-10T05:45:16.325Z,86.10
2018-12-10T05:45:48.940Z,85.00
2018-12-10T05:46:21.538Z,85.30
2018-12-10T05:46:54.148Z,85.10
2018-12-10T05:47:26.737Z,84.80
2018-12-10T05:47:59.320Z,85.20
2018-12-10T05:48:31.901Z,84.70
2018-12-10T05:49:04.502Z,85.00
2018-12-10T05:49:37.110Z,85.10
2018-12-10T05:50:09.695Z,85.30
2018-12-10T05:50:42.264Z,85.10
2018-12-10T05:51:14.849Z,85.20
2018-12-10T05:51:47.451Z,86.00
2018-12-10T05:52:20.022Z,85.70
2018-12-10T05:52:52.627Z,84.40
2018-12-10T05:53:25.304Z,84.80
2018-12-10T05:53:58.027Z,83.90
2018-12-10T05:54:30.609Z,84.10
2018-12-10T05:55:03.486Z,84.20
2018-12-10T05:55:36.101Z,84.70
2018-12-10T05:56:08.723Z,85.50
2018-12-10T05:56:41.316Z,85.60
2018-12-10T05:57:13.926Z,85.30
2018-12-10T05:57:46.517Z,85.00
2018-12-10T05:58:19.114Z,84.50
2018-12-10T05:58:51.704Z,84.30
2018-12-10T05:59:24.310Z,84.80
2018-12-10T05:59:56.885Z,84.60
2018-12-10T06:00:29.532Z,85.20
2018-12-10T06:01:02.122Z,85.20
2018-12-10T06:01:34.726Z,85.70
2018-12-10T06:02:07.317Z,84.70
2018-12-10T06:02:39.901Z,84.70
2018-12-10T06:03:12.500Z,84.90
2018-12-10T06:03:45.087Z,83.90
2018-12-10T06:04:17.675Z,83.90
2018-12-10T06:04:50.274Z,83.90
2018-12-10T06:05:22.856Z,83.10
2018-12-10T06:05:55.487Z,82.90
2018-12-10T06:06:28.067Z,83.30
2018-12-10T06:07:00.796Z,83.80
2018-12-10T06:07:33.397Z,84.00
2018-12-10T06:08:05.707Z,83.50
2018-12-10T06:08:38.295Z,83.90
2018-12-10T06:09:10.893Z,83.60
2018-12-10T06:09:43.501Z,83.70
2018-12-10T06:10:16.083Z,84.30
2018-12-10T06:10:48.703Z,84.00
2018-12-10T06:11:21.355Z,83.70
2018-12-10T06:11:53.945Z,84.10
2018-12-10T06:12:26.570Z,84.00
2018-12-10T06:12:59.174Z,83.60
2018-12-10T06:13:31.765Z,82.80
2018-12-10T06:14:04.384Z,82.60
2018-12-10T06:14:36.977Z,82.10
2018-12-10T06:15:09.579Z,82.20
2018-12-10T06:15:42.225Z,83.00
2018-12-10T06:16:16.673Z,82.90
2018-12-10T06:16:49.481Z,83.00
2018-12-10T06:17:22.090Z,83.50
2018-12-10T06:17:54.689Z,83.80
2018-12-10T06:18:27.283Z,83.00
2018-12-10T06:18:59.885Z,83.20
2018-12-10T06:19:32.475Z,83.10
2018-12-10T06:20:05.473Z,83.20
2018-12-10T06:20:38.058Z,82.00
2018-12-10T06:21:10.657Z,81.90
2018-12-10T06:21:43.237Z,83.60
2018-12-10T06:22:15.829Z,83.20
2018-12-10T06:22:48.437Z,83.00
2018-12-10T06:23:21.032Z,83.00
2018-12-10T06:23:53.618Z,83.40
2018-12-10T06:24:26.231Z,83.30
2018-12-10T06:24:58.831Z,83.30
2018-12-10T06:25:31.471Z,83.70
2018-12-10T06:26:04.080Z,84.00
2018-12-10T06:26:36.677Z,84.50
2018-12-10T06:27:09.261Z,84.50
2018-12-10T06:27:41.887Z,84.80
2018-12-10T06:28:14.482Z,84.50
2018-12-10T06:28:47.091Z,84.40
2018-12-10T06:29:19.725Z,84.70
2018-12-10T06:29:52.324Z,84.70
2018-12-10T06:30:24.968Z,84.80
2018-12-10T06:30:57.565Z,85.50
2018-12-10T06:31:30.165Z,85.70
2018-12-10T06:32:02.742Z,85.70
2018-12-10T06:32:35.349Z,86.00
2018-12-10T06:33:07.972Z,86.00
2018-12-10T06:33:40.569Z,85.90
2018-12-10T06:34:13.179Z,85.40
2018-12-10T06:34:45.783Z,85.30
2018-12-10T06:35:18.356Z,85.50
2018-12-10T06:35:50.922Z,85.70
2018-12-10T06:36:23.508Z,85.90
2018-12-10T06:36:56.100Z,85.70
2018-12-10T06:37:28.694Z,86.10
2018-12-10T06:38:01.278Z,86.30
2018-12-10T06:38:33.886Z,86.00
2018-12-10T06:39:07.290Z,86.30
2018-12-10T06:39:39.889Z,86.50
2018-12-10T06:40:12.495Z,86.60
2018-12-10T06:40:45.085Z,87.00
2018-12-10T06:41:17.674Z,87.30
2018-12-10T06:41:50.279Z,87.70
2018-12-10T06:42:22.884Z,88.20
2018-12-10T06:42:55.469Z,88.00
2018-12-10T06:43:28.054Z,88.30
2018-12-10T06:44:00.677Z,88.00
2018-12-10T06:44:33.265Z,88.10
2018-12-10T06:45:06.317Z,88.60
2018-12-10T06:45:38.907Z,88.70
2018-12-10T06:46:11.537Z,88.90
2018-12-10T06:46:44.116Z,88.80
2018-12-10T06:47:16.723Z,88.50
2018-12-10T06:47:49.308Z,88.60
2018-12-10T06:48:21.922Z,88.90
2018-12-10T06:48:54.507Z,89.00
2018-12-10T06:49:27.143Z,89.50
2018-12-10T06:49:59.841Z,89.70
2018-12-10T06:50:32.518Z,89.70
2018-12-10T06:51:05.093Z,89.00
2018-12-10T06:51:37.666Z,89.30
2018-12-10T06:52:10.272Z,89.50
2018-12-10T06:52:42.867Z,88.70
2018-12-10T06:53:15.440Z,88.00
2018-12-10T06:53:48.029Z,87.80
2018-12-10T06:54:20.629Z,87.80
2018-12-10T06:54:53.259Z,87.30
2018-12-10T06:55:25.833Z,87.10
2018-12-10T06:55:58.432Z,87.30
2018-12-10T06:56:31.034Z,87.50
2018-12-10T06:57:04.036Z,87.70
2018-12-10T06:57:36.620Z,87.80
2018-12-10T06:58:09.218Z,88.10
2018-12-10T06:58:41.792Z,88.00
2018-12-10T06:59:14.585Z,87.70
2018-12-10T06:59:47.493Z,88.10
2018-12-10T07:00:21.021Z,87.10
2018-12-10T07:00:53.625Z,87.30